sensor_id;sensor_type;location;lat;lon;timestamp;pressure;altitude;pressure_sealevel;temperature;humidity
71344;BME280;59146;43.850;25.948;2024-03-08T00:00:27;101592.47;;;5.02;100.00
71344;BME280;59146;43.850;25.948;2024-03-08T00:02:52;101577.09;;;4.93;100.00
71344;BME280;59146;43.850;25.948;2024-03-08T00:05:19;101571.94;;;4.93;100.00
71344;BME280;59146;43.850;25.948;2024-03-08T00:07:44;101512.09;;;4.67;100.00
71344;BME280;59146;43.850;25.948;2024-03-08T00:10:11;101519.00;;;4.66;100.00
71344;BME280;59146;43.850;25.948;2024-03-08T00:12:42;101508.84;;;4.56;100.00
71344;BME280;59146;43.850;25.948;2024-03-08T00:15:11;101544.69;;;4.74;100.00
71344;BME280;59146;43.850;25.948;2024-03-08T00:17:40;101534.44;;;4.71;100.00
71344;BME280;59146;43.850;25.948;2024-03-08T00:20:06;101497.84;;;4.45;100.00
71344;BME280;59146;43.850;25.948;2024-03-08T00:22:37;101502.56;;;4.69;100.00
71344;BME280;59146;43.850;25.948;2024-03-08T00:25:06;101495.09;;;4.54;100.00
71344;BME280;59146;43.850;25.948;2024-03-08T00:27:34;101490.69;;;4.57;100.00
71344;BME280;59146;43.850;25.948;2024-03-08T00:29:59;101470.00;;;4.57;100.00
71344;BME280;59146;43.850;25.948;2024-03-08T00:32:25;101378.19;;;3.95;100.00
71344;BME280;59146;43.850;25.948;2024-03-08T00:34:53;101541.84;;;4.86;100.00
71344;BME280;59146;43.850;25.948;2024-03-08T00:37:19;101539.16;;;4.92;100.00
71344;BME280;59146;43.850;25.948;2024-03-08T00:39:45;101490.66;;;4.60;100.00
71344;BME280;59146;43.850;25.948;2024-03-08T00:42:10;101510.41;;;4.63;100.00
71344;BME280;59146;43.850;25.948;2024-03-08T00:44:36;101538.56;;;4.79;100.00
71344;BME280;59146;43.850;25.948;2024-03-08T00:47:01;101440.44;;;4.28;100.00
71344;BME280;59146;43.850;25.948;2024-03-08T00:49:28;101556.22;;;5.02;100.00
71344;BME280;59146;43.850;25.948;2024-03-08T00:51:53;101536.69;;;4.86;100.00
71344;BME280;59146;43.850;25.948;2024-03-08T00:54:19;101545.63;;;5.11;100.00
71344;BME280;59146;43.850;25.948;2024-03-08T00:56:44;101504.59;;;4.93;100.00
71344;BME280;59146;43.850;25.948;2024-03-08T00:59:11;101538.03;;;5.04;100.00
71344;BME280;59146;43.850;25.948;2024-03-08T01:01:36;101532.22;;;4.94;100.00
71344;BME280;59146;43.850;25.948;2024-03-08T01:04:01;101472.44;;;4.65;100.00
71344;BME280;59146;43.850;25.948;2024-03-08T01:06:27;101519.78;;;5.10;100.00
71344;BME280;59146;43.850;25.948;2024-03-08T01:08:52;101536.94;;;5.15;100.00
71344;BME280;59146;43.850;25.948;2024-03-08T01:11:18;101551.16;;;4.96;100.00
71344;BME280;59146;43.850;25.948;2024-03-08T01:13:44;101422.69;;;4.10;100.00
71344;BME280;59146;43.850;25.948;2024-03-08T01:16:12;101531.41;;;4.92;100.00
71344;BME280;59146;43.850;25.948;2024-03-08T01:18:38;101558.84;;;4.99;100.00
71344;BME280;59146;43.850;25.948;2024-03-08T01:21:04;101511.22;;;4.66;100.00
71344;BME280;59146;43.850;25.948;2024-03-08T01:23:29;101535.88;;;4.84;100.00
71344;BME280;59146;43.850;25.948;2024-03-08T01:25:55;101486.16;;;4.68;100.00
71344;BME280;59146;43.850;25.948;2024-03-08T01:28:25;101558.63;;;5.10;100.00
71344;BME280;59146;43.850;25.948;2024-03-08T01:30:51;101555.63;;;4.88;100.00
71344;BME280;59146;43.850;25.948;2024-03-08T01:33:29;101487.84;;;4.28;100.00
71344;BME280;59146;43.850;25.948;2024-03-08T01:35:57;101511.22;;;4.66;100.00
71344;BME280;59146;43.850;25.948;2024-03-08T01:38:23;101535.53;;;4.99;99.79
71344;BME280;59146;43.850;25.948;2024-03-08T01:40:49;101531.41;;;4.91;99.50
71344;BME280;59146;43.850;25.948;2024-03-08T01:43:28;101349.31;;;3.74;99.95
71344;BME280;59146;43.850;25.948;2024-03-08T01:45:55;101557.22;;;4.95;100.00
71344;BME280;59146;43.850;25.948;2024-03-08T01:48:23;101533.78;;;5.01;99.84
71344;BME280;59146;43.850;25.948;2024-03-08T01:50:49;101559.28;;;5.19;98.29
71344;BME280;59146;43.850;25.948;2024-03-08T01:53:17;101493.28;;;4.57;98.82
71344;BME280;59146;43.850;25.948;2024-03-08T01:55:47;101569.47;;;4.87;100.00
71344;BME280;59146;43.850;25.948;2024-03-08T01:58:13;101521.53;;;4.68;100.00
71344;BME280;59146;43.850;25.948;2024-03-08T02:00:44;101540.06;;;4.90;98.66
71344;BME280;59146;43.850;25.948;2024-03-08T02:03:10;101497.00;;;4.46;98.61
71344;BME280;59146;43.850;25.948;2024-03-08T02:05:40;101563.31;;;4.50;100.00
71344;BME280;59146;43.850;25.948;2024-03-08T02:08:06;101549.34;;;4.58;100.00
71344;BME280;59146;43.850;25.948;2024-03-08T02:10:33;101556.78;;;4.75;100.00
71344;BME280;59146;43.850;25.948;2024-03-08T02:13:01;101546.28;;;4.81;98.73
71344;BME280;59146;43.850;25.948;2024-03-08T02:15:51;101553.47;;;4.68;99.49
71344;BME280;59146;43.850;25.948;2024-03-08T02:18:16;101563.03;;;4.65;99.79
71344;BME280;59146;43.850;25.948;2024-03-08T02:20:54;101558.22;;;4.88;99.04
71344;BME280;59146;43.850;25.948;2024-03-08T02:23:20;101546.22;;;4.84;98.22
71344;BME280;59146;43.850;25.948;2024-03-08T02:25:47;101563.47;;;4.85;97.84
71344;BME280;59146;43.850;25.948;2024-03-08T02:28:13;101561.34;;;4.61;99.81
71344;BME280;59146;43.850;25.948;2024-03-08T02:30:39;101572.31;;;4.75;98.82
71344;BME280;59146;43.850;25.948;2024-03-08T02:33:05;101580.59;;;4.92;98.31
71344;BME280;59146;43.850;25.948;2024-03-08T02:35:31;101562.69;;;4.81;97.81
71344;BME280;59146;43.850;25.948;2024-03-08T02:37:57;101538.66;;;4.31;99.64
71344;BME280;59146;43.850;25.948;2024-03-08T02:40:23;101533.88;;;4.10;100.00
71344;BME280;59146;43.850;25.948;2024-03-08T02:42:49;101566.63;;;4.56;100.00
71344;BME280;59146;43.850;25.948;2024-03-08T02:45:14;101523.72;;;4.45;100.00
71344;BME280;59146;43.850;25.948;2024-03-08T02:47:40;101570.47;;;4.80;99.31
71344;BME280;59146;43.850;25.948;2024-03-08T02:50:06;101587.22;;;4.61;99.61
71344;BME280;59146;43.850;25.948;2024-03-08T02:52:34;101506.03;;;4.24;99.87
71344;BME280;59146;43.850;25.948;2024-03-08T02:55:00;101502.53;;;4.26;97.69
71344;BME280;59146;43.850;25.948;2024-03-08T02:57:26;101575.88;;;4.68;97.47
71344;BME280;59146;43.850;25.948;2024-03-08T02:59:53;101591.50;;;4.65;96.93
71344;BME280;59146;43.850;25.948;2024-03-08T03:02:22;101432.44;;;3.50;97.46
71344;BME280;59146;43.850;25.948;2024-03-08T03:04:48;101562.63;;;4.40;97.93
71344;BME280;59146;43.850;25.948;2024-03-08T03:07:14;101547.09;;;4.42;97.62
71344;BME280;59146;43.850;25.948;2024-03-08T03:09:39;101577.59;;;4.69;97.77
71344;BME280;59146;43.850;25.948;2024-03-08T03:12:06;101442.28;;;3.75;98.40
71344;BME280;59146;43.850;25.948;2024-03-08T03:14:35;101538.66;;;4.31;99.93
71344;BME280;59146;43.850;25.948;2024-03-08T03:17:00;101558.91;;;4.53;99.71
71344;BME280;59146;43.850;25.948;2024-03-08T03:19:27;101569.03;;;4.67;99.70
71344;BME280;59146;43.850;25.948;2024-03-08T03:21:53;101574.25;;;4.64;99.17
71344;BME280;59146;43.850;25.948;2024-03-08T03:24:19;101570.19;;;4.51;99.59
71344;BME280;59146;43.850;25.948;2024-03-08T03:26:46;101528.56;;;4.19;99.79
71344;BME280;59146;43.850;25.948;2024-03-08T03:29:14;101438.69;;;3.84;98.63
71344;BME280;59146;43.850;25.948;2024-03-08T03:31:40;101553.72;;;4.55;97.55
71344;BME280;59146;43.850;25.948;2024-03-08T03:34:06;101566.53;;;4.62;97.74
71344;BME280;59146;43.850;25.948;2024-03-08T03:36:34;101578.69;;;4.57;97.93
71344;BME280;59146;43.850;25.948;2024-03-08T03:39:00;101529.06;;;4.36;98.39
71344;BME280;59146;43.850;25.948;2024-03-08T03:41:37;101554.66;;;4.52;98.14
71344;BME280;59146;43.850;25.948;2024-03-08T03:44:04;101534.16;;;4.40;97.64
71344;BME280;59146;43.850;25.948;2024-03-08T03:46:30;101527.38;;;4.35;97.83
71344;BME280;59146;43.850;25.948;2024-03-08T03:48:56;101562.91;;;4.25;97.19
71344;BME280;59146;43.850;25.948;2024-03-08T03:51:22;101430.75;;;3.47;97.02
71344;BME280;59146;43.850;25.948;2024-03-08T03:53:47;101543.84;;;4.31;96.40
71344;BME280;59146;43.850;25.948;2024-03-08T03:56:13;101576.44;;;4.38;96.14
71344;BME280;59146;43.850;25.948;2024-03-08T03:58:39;101606.59;;;4.40;96.40
71344;BME280;59146;43.850;25.948;2024-03-08T04:01:05;101573.38;;;4.18;97.74
71344;BME280;59146;43.850;25.948;2024-03-08T04:03:30;101614.16;;;4.51;97.10
71344;BME280;59146;43.850;25.948;2024-03-08T04:05:56;101526.47;;;3.90;95.23
71344;BME280;59146;43.850;25.948;2024-03-08T04:08:21;101554.88;;;3.90;96.65
71344;BME280;59146;43.850;25.948;2024-03-08T04:10:49;101580.47;;;4.07;97.77
71344;BME280;59146;43.850;25.948;2024-03-08T04:13:14;101599.19;;;4.21;98.37
71344;BME280;59146;43.850;25.948;2024-03-08T04:15:41;101549.47;;;4.05;97.01
71344;BME280;59146;43.850;25.948;2024-03-08T04:18:09;101474.03;;;3.32;96.61
71344;BME280;59146;43.850;25.948;2024-03-08T04:20:35;101625.09;;;4.18;99.00
71344;BME280;59146;43.850;25.948;2024-03-08T04:23:00;101610.44;;;4.18;99.41
71344;BME280;59146;43.850;25.948;2024-03-08T04:25:26;101574.72;;;3.91;100.00
71344;BME280;59146;43.850;25.948;2024-03-08T04:27:52;101607.94;;;4.14;100.00
71344;BME280;59146;43.850;25.948;2024-03-08T04:30:18;101596.06;;;4.00;100.00
71344;BME280;59146;43.850;25.948;2024-03-08T04:32:43;101569.63;;;3.83;100.00
71344;BME280;59146;43.850;25.948;2024-03-08T04:35:09;101591.22;;;3.82;100.00
71344;BME280;59146;43.850;25.948;2024-03-08T04:37:34;101602.13;;;3.98;100.00
71344;BME280;59146;43.850;25.948;2024-03-08T04:40:00;101547.50;;;3.67;100.00
71344;BME280;59146;43.850;25.948;2024-03-08T04:42:27;101621.06;;;4.01;100.00
71344;BME280;59146;43.850;25.948;2024-03-08T04:44:54;101541.81;;;3.47;100.00
71344;BME280;59146;43.850;25.948;2024-03-08T04:47:20;101543.47;;;3.51;100.00
71344;BME280;59146;43.850;25.948;2024-03-08T04:49:45;101608.34;;;3.88;100.00
71344;BME280;59146;43.850;25.948;2024-03-08T04:52:11;101622.16;;;3.85;100.00
71344;BME280;59146;43.850;25.948;2024-03-08T04:54:37;101533.25;;;3.42;100.00
71344;BME280;59146;43.850;25.948;2024-03-08T04:57:02;101601.66;;;3.76;100.00
71344;BME280;59146;43.850;25.948;2024-03-08T04:59:29;101620.25;;;3.99;100.00
71344;BME280;59146;43.850;25.948;2024-03-08T05:01:55;101547.94;;;3.40;100.00
71344;BME280;59146;43.850;25.948;2024-03-08T05:04:21;101538.50;;;3.39;99.68
71344;BME280;59146;43.850;25.948;2024-03-08T05:06:47;101569.44;;;3.42;98.49
71344;BME280;59146;43.850;25.948;2024-03-08T05:09:13;101623.16;;;3.78;98.81
71344;BME280;59146;43.850;25.948;2024-03-08T05:11:40;101633.44;;;3.81;98.42
71344;BME280;59146;43.850;25.948;2024-03-08T05:14:05;101610.31;;;3.72;99.00
71344;BME280;59146;43.850;25.948;2024-03-08T05:16:31;101594.09;;;3.64;97.50
71344;BME280;59146;43.850;25.948;2024-03-08T05:18:56;101582.00;;;3.65;97.12
71344;BME280;59146;43.850;25.948;2024-03-08T05:21:22;101654.13;;;3.80;98.33
71344;BME280;59146;43.850;25.948;2024-03-08T05:23:48;101636.94;;;3.77;97.97
71344;BME280;59146;43.850;25.948;2024-03-08T05:26:15;101624.94;;;3.75;98.32
71344;BME280;59146;43.850;25.948;2024-03-08T05:28:41;101625.88;;;3.69;98.76
71344;BME280;59146;43.850;25.948;2024-03-08T05:31:07;101588.16;;;3.58;97.73
71344;BME280;59146;43.850;25.948;2024-03-08T05:33:32;101607.22;;;3.49;98.35
71344;BME280;59146;43.850;25.948;2024-03-08T05:36:00;101631.06;;;3.68;98.87
71344;BME280;59146;43.850;25.948;2024-03-08T05:38:26;101630.06;;;3.76;98.69
71344;BME280;59146;43.850;25.948;2024-03-08T05:40:52;101650.59;;;3.85;98.24
71344;BME280;59146;43.850;25.948;2024-03-08T05:43:17;101647.84;;;3.97;97.86
71344;BME280;59146;43.850;25.948;2024-03-08T05:45:45;101571.97;;;3.45;97.69
71344;BME280;59146;43.850;25.948;2024-03-08T05:48:11;101658.19;;;3.96;97.91
71344;BME280;59146;43.850;25.948;2024-03-08T05:50:38;101650.78;;;3.73;98.22
71344;BME280;59146;43.850;25.948;2024-03-08T05:53:04;101673.88;;;3.84;97.57
71344;BME280;59146;43.850;25.948;2024-03-08T05:55:32;101635.28;;;3.75;98.16
71344;BME280;59146;43.850;25.948;2024-03-08T05:58:01;101659.78;;;4.06;97.19
71344;BME280;59146;43.850;25.948;2024-03-08T06:00:27;101671.72;;;4.13;96.71
71344;BME280;59146;43.850;25.948;2024-03-08T06:02:53;101582.47;;;3.35;97.55
71344;BME280;59146;43.850;25.948;2024-03-08T06:05:18;101683.94;;;4.03;97.38
71344;BME280;59146;43.850;25.948;2024-03-08T06:07:44;101669.41;;;3.95;97.96
71344;BME280;59146;43.850;25.948;2024-03-08T06:10:10;101668.47;;;4.00;97.81
71344;BME280;59146;43.850;25.948;2024-03-08T06:12:37;101677.88;;;4.04;97.30
71344;BME280;59146;43.850;25.948;2024-03-08T06:15:07;101607.06;;;3.58;97.16
71344;BME280;59146;43.850;25.948;2024-03-08T06:17:34;101630.16;;;3.70;98.53
71344;BME280;59146;43.850;25.948;2024-03-08T06:20:00;101704.19;;;4.31;97.78
71344;BME280;59146;43.850;25.948;2024-03-08T06:22:26;101699.63;;;4.48;96.41
71344;BME280;59146;43.850;25.948;2024-03-08T06:24:51;101647.84;;;3.97;95.86
71344;BME280;59146;43.850;25.948;2024-03-08T06:27:17;101698.41;;;4.17;96.74
71344;BME280;59146;43.850;25.948;2024-03-08T06:29:43;101677.88;;;4.04;97.40
71344;BME280;59146;43.850;25.948;2024-03-08T06:32:08;101703.16;;;4.41;95.81
71344;BME280;59146;43.850;25.948;2024-03-08T06:34:37;101693.72;;;4.40;94.73
71344;BME280;59146;43.850;25.948;2024-03-08T06:37:02;101713.66;;;4.32;94.98
71344;BME280;59146;43.850;25.948;2024-03-08T06:39:28;101698.41;;;4.15;95.96
71344;BME280;59146;43.850;25.948;2024-03-08T06:41:57;101693.41;;;4.03;96.34
71344;BME280;59146;43.850;25.948;2024-03-08T06:44:23;101682.38;;;3.93;97.88
71344;BME280;59146;43.850;25.948;2024-03-08T06:46:49;101712.41;;;4.02;97.60
71344;BME280;59146;43.850;25.948;2024-03-08T06:49:14;101699.47;;;4.00;98.39
71344;BME280;59146;43.850;25.948;2024-03-08T06:51:43;101713.91;;;4.17;97.97
71344;BME280;59146;43.850;25.948;2024-03-08T06:54:08;101718.19;;;4.18;96.64
71344;BME280;59146;43.850;25.948;2024-03-08T06:56:37;101675.47;;;3.92;98.18
71344;BME280;59146;43.850;25.948;2024-03-08T06:59:03;101669.59;;;3.81;98.23
71344;BME280;59146;43.850;25.948;2024-03-08T07:01:29;101613.88;;;3.65;97.63
71344;BME280;59146;43.850;25.948;2024-03-08T07:03:59;101738.84;;;4.21;97.28
71344;BME280;59146;43.850;25.948;2024-03-08T07:06:27;101615.16;;;3.37;97.19
71344;BME280;59146;43.850;25.948;2024-03-08T07:08:54;101732.06;;;4.11;97.36
71344;BME280;59146;43.850;25.948;2024-03-08T07:11:19;101702.88;;;4.06;96.63
71344;BME280;59146;43.850;25.948;2024-03-08T07:13:45;101725.16;;;4.14;96.63
71344;BME280;59146;43.850;25.948;2024-03-08T07:16:11;101734.69;;;4.09;97.85
71344;BME280;59146;43.850;25.948;2024-03-08T07:18:37;101719.25;;;4.04;98.09
71344;BME280;59146;43.850;25.948;2024-03-08T07:21:09;101709.72;;;4.07;97.28
71344;BME280;59146;43.850;25.948;2024-03-08T07:23:35;101689.41;;;3.82;97.65
71344;BME280;59146;43.850;25.948;2024-03-08T07:26:20;101725.09;;;4.19;97.06
71344;BME280;59146;43.850;25.948;2024-03-08T07:28:46;101711.22;;;4.21;96.58
71344;BME280;59146;43.850;25.948;2024-03-08T07:31:11;101682.19;;;4.06;96.61
71344;BME280;59146;43.850;25.948;2024-03-08T07:33:52;101727.19;;;4.49;96.28
71344;BME280;59146;43.850;25.948;2024-03-08T07:36:21;101742.66;;;4.50;94.87
71344;BME280;59146;43.850;25.948;2024-03-08T07:38:47;101690.91;;;3.98;96.15
71344;BME280;59146;43.850;25.948;2024-03-08T07:41:13;101747.19;;;4.38;96.25
71344;BME280;59146;43.850;25.948;2024-03-08T07:43:40;101720.78;;;4.18;96.71
71344;BME280;59146;43.850;25.948;2024-03-08T07:46:05;101716.56;;;4.11;96.95
71344;BME280;59146;43.850;25.948;2024-03-08T07:48:31;101733.25;;;4.48;96.94
71344;BME280;59146;43.850;25.948;2024-03-08T07:50:56;101728.91;;;4.50;95.96
71344;BME280;59146;43.850;25.948;2024-03-08T07:53:22;101751.13;;;4.61;96.36
71344;BME280;59146;43.850;25.948;2024-03-08T07:55:49;101738.25;;;4.57;96.12
71344;BME280;59146;43.850;25.948;2024-03-08T07:58:15;101702.25;;;4.45;96.48
71344;BME280;59146;43.850;25.948;2024-03-08T08:00:42;101718.47;;;4.53;96.70
71344;BME280;59146;43.850;25.948;2024-03-08T08:03:08;101729.56;;;4.61;97.35
71344;BME280;59146;43.850;25.948;2024-03-08T08:05:34;101695.19;;;4.53;96.44
71344;BME280;59146;43.850;25.948;2024-03-08T08:08:04;101688.81;;;4.72;94.71
71344;BME280;59146;43.850;25.948;2024-03-08T08:10:32;101683.75;;;4.66;94.87
71344;BME280;59146;43.850;25.948;2024-03-08T08:12:58;101735.78;;;5.00;95.40
71344;BME280;59146;43.850;25.948;2024-03-08T08:15:24;101745.59;;;5.30;93.94
71344;BME280;59146;43.850;25.948;2024-03-08T08:17:49;101723.47;;;5.12;92.76
71344;BME280;59146;43.850;25.948;2024-03-08T08:20:15;101721.13;;;4.99;92.41
71344;BME280;59146;43.850;25.948;2024-03-08T08:22:43;101698.44;;;4.67;93.31
71344;BME280;59146;43.850;25.948;2024-03-08T08:25:09;101743.06;;;4.78;94.24
71344;BME280;59146;43.850;25.948;2024-03-08T08:27:38;101729.38;;;4.73;94.96
71344;BME280;59146;43.850;25.948;2024-03-08T08:30:05;101755.69;;;4.98;94.28
71344;BME280;59146;43.850;25.948;2024-03-08T08:32:34;101763.59;;;4.90;94.38
71344;BME280;59146;43.850;25.948;2024-03-08T08:35:01;101755.28;;;4.70;95.41
71344;BME280;59146;43.850;25.948;2024-03-08T08:37:27;101759.25;;;4.91;95.94
71344;BME280;59146;43.850;25.948;2024-03-08T08:39:54;101627.50;;;4.28;94.67
71344;BME280;59146;43.850;25.948;2024-03-08T08:42:19;101738.69;;;4.83;94.67
71344;BME280;59146;43.850;25.948;2024-03-08T08:44:45;101764.50;;;4.86;95.92
71344;BME280;59146;43.850;25.948;2024-03-08T08:47:11;101723.25;;;4.77;96.41
71344;BME280;59146;43.850;25.948;2024-03-08T08:49:38;101671.03;;;4.54;95.97
71344;BME280;59146;43.850;25.948;2024-03-08T08:52:04;101754.56;;;5.12;95.22
71344;BME280;59146;43.850;25.948;2024-03-08T08:54:29;101740.78;;;5.10;94.85
71344;BME280;59146;43.850;25.948;2024-03-08T08:56:55;101769.81;;;5.26;93.74
71344;BME280;59146;43.850;25.948;2024-03-08T08:59:20;101647.78;;;4.51;94.03
71344;BME280;59146;43.850;25.948;2024-03-08T09:01:48;101683.47;;;4.82;94.00
71344;BME280;59146;43.850;25.948;2024-03-08T09:04:15;101711.47;;;5.08;94.20
71344;BME280;59146;43.850;25.948;2024-03-08T09:06:42;101745.78;;;5.19;94.52
71344;BME280;59146;43.850;25.948;2024-03-08T09:09:07;101755.09;;;5.29;94.08
71344;BME280;59146;43.850;25.948;2024-03-08T09:11:39;101758.38;;;5.37;94.09
71344;BME280;59146;43.850;25.948;2024-03-08T09:14:07;101760.28;;;5.29;93.46
71344;BME280;59146;43.850;25.948;2024-03-08T09:16:34;101710.75;;;5.00;93.50
71344;BME280;59146;43.850;25.948;2024-03-08T09:19:10;101767.84;;;5.40;93.93
71344;BME280;59146;43.850;25.948;2024-03-08T09:21:37;101745.44;;;5.37;93.24
71344;BME280;59146;43.850;25.948;2024-03-08T09:24:03;101744.59;;;5.35;93.97
71344;BME280;59146;43.850;25.948;2024-03-08T09:26:28;101766.59;;;5.57;93.00
71344;BME280;59146;43.850;25.948;2024-03-08T09:28:54;101749.38;;;5.56;92.67
71344;BME280;59146;43.850;25.948;2024-03-08T09:31:21;101745.03;;;5.57;93.32
71344;BME280;59146;43.850;25.948;2024-03-08T09:33:46;101772.00;;;5.91;91.07
71344;BME280;59146;43.850;25.948;2024-03-08T09:36:13;101770.41;;;5.83;91.43
71344;BME280;59146;43.850;25.948;2024-03-08T09:38:39;101744.13;;;5.58;90.70
71344;BME280;59146;43.850;25.948;2024-03-08T09:41:06;101753.81;;;5.93;89.74
71344;BME280;59146;43.850;25.948;2024-03-08T09:43:31;101768.22;;;6.06;89.33
71344;BME280;59146;43.850;25.948;2024-03-08T09:45:58;101773.47;;;6.03;89.36
71344;BME280;59146;43.850;25.948;2024-03-08T09:48:23;101745.75;;;5.65;90.77
71344;BME280;59146;43.850;25.948;2024-03-08T09:50:51;101775.84;;;6.12;89.36
71344;BME280;59146;43.850;25.948;2024-03-08T09:53:17;101742.88;;;6.17;88.05
71344;BME280;59146;43.850;25.948;2024-03-08T09:55:42;101767.09;;;6.17;87.62
71344;BME280;59146;43.850;25.948;2024-03-08T09:58:12;101757.78;;;5.68;90.49
71344;BME280;59146;43.850;25.948;2024-03-08T10:00:55;101745.19;;;5.91;90.63
71344;BME280;59146;43.850;25.948;2024-03-08T10:03:27;101777.00;;;6.38;88.52
71344;BME280;59146;43.850;25.948;2024-03-08T10:05:52;101748.91;;;6.19;85.98
71344;BME280;59146;43.850;25.948;2024-03-08T10:08:22;101702.25;;;5.76;87.42
71344;BME280;59146;43.850;25.948;2024-03-08T10:10:47;101772.53;;;6.07;87.78
71344;BME280;59146;43.850;25.948;2024-03-08T10:13:15;101726.69;;;5.68;88.36
71344;BME280;59146;43.850;25.948;2024-03-08T10:15:43;101768.84;;;6.17;87.62
71344;BME280;59146;43.850;25.948;2024-03-08T10:18:09;101726.06;;;5.96;88.11
71344;BME280;59146;43.850;25.948;2024-03-08T10:20:36;101773.88;;;6.23;87.71
71344;BME280;59146;43.850;25.948;2024-03-08T10:23:03;101755.59;;;5.89;89.42
71344;BME280;59146;43.850;25.948;2024-03-08T10:25:34;101780.75;;;5.86;89.34
71344;BME280;59146;43.850;25.948;2024-03-08T10:28:03;101708.16;;;5.43;90.11
71344;BME280;59146;43.850;25.948;2024-03-08T10:30:30;101764.56;;;5.73;91.54
71344;BME280;59146;43.850;25.948;2024-03-08T10:32:56;101749.88;;;5.74;91.05
71344;BME280;59146;43.850;25.948;2024-03-08T10:35:22;101769.63;;;5.79;92.34
71344;BME280;59146;43.850;25.948;2024-03-08T10:37:50;101764.22;;;5.91;93.11
71344;BME280;59146;43.850;25.948;2024-03-08T10:40:25;101756.59;;;5.84;91.46
71344;BME280;59146;43.850;25.948;2024-03-08T10:45:38;101765.06;;;5.92;90.87
71344;BME280;59146;43.850;25.948;2024-03-08T10:50:38;101745.59;;;5.71;91.97
71344;BME280;59146;43.850;25.948;2024-03-08T10:53:06;101767.13;;;5.75;91.79
71344;BME280;59146;43.850;25.948;2024-03-08T10:55:33;101743.78;;;5.75;92.89
71344;BME280;59146;43.850;25.948;2024-03-08T10:57:59;101754.13;;;5.78;92.96
71344;BME280;59146;43.850;25.948;2024-03-08T11:00:26;101762.47;;;5.92;92.44
71344;BME280;59146;43.850;25.948;2024-03-08T11:02:53;101689.75;;;5.56;91.04
71344;BME280;59146;43.850;25.948;2024-03-08T11:05:39;101707.06;;;5.54;91.80
71344;BME280;59146;43.850;25.948;2024-03-08T11:08:18;101748.66;;;5.91;91.79
71344;BME280;59146;43.850;25.948;2024-03-08T11:13:35;101753.75;;;5.96;93.60
71344;BME280;59146;43.850;25.948;2024-03-08T11:16:08;101716.75;;;5.88;90.60
71344;BME280;59146;43.850;25.948;2024-03-08T11:18:36;101734.72;;;5.95;90.21
71344;BME280;59146;43.850;25.948;2024-03-08T11:21:03;101696.50;;;5.63;90.46
71344;BME280;59146;43.850;25.948;2024-03-08T11:23:32;101742.94;;;6.14;89.36
71344;BME280;59146;43.850;25.948;2024-03-08T11:25:59;101744.56;;;6.19;88.51
71344;BME280;59146;43.850;25.948;2024-03-08T11:28:25;101680.88;;;5.67;88.70
71344;BME280;59146;43.850;25.948;2024-03-08T11:33:27;101716.19;;;6.12;88.83
71344;BME280;59146;43.850;25.948;2024-03-08T11:36:12;101675.44;;;6.17;87.27
71344;BME280;59146;43.850;25.948;2024-03-08T11:38:45;101739.75;;;6.39;86.85
71344;BME280;59146;43.850;25.948;2024-03-08T11:41:14;101742.03;;;6.52;87.61
71344;BME280;59146;43.850;25.948;2024-03-08T11:43:42;101732.63;;;6.48;86.78
71344;BME280;59146;43.850;25.948;2024-03-08T11:46:08;101727.44;;;6.81;85.66
71344;BME280;59146;43.850;25.948;2024-03-08T11:48:34;101667.19;;;6.35;85.74
71344;BME280;59146;43.850;25.948;2024-03-08T11:51:01;101736.56;;;6.64;86.29
71344;BME280;59146;43.850;25.948;2024-03-08T11:53:28;101700.94;;;6.70;84.99
71344;BME280;59146;43.850;25.948;2024-03-08T11:55:53;101719.34;;;6.93;84.07
71344;BME280;59146;43.850;25.948;2024-03-08T11:58:19;101643.63;;;6.44;83.25
71344;BME280;59146;43.850;25.948;2024-03-08T12:00:44;101713.94;;;6.69;83.82
71344;BME280;59146;43.850;25.948;2024-03-08T12:03:11;101722.63;;;6.66;83.80
71344;BME280;59146;43.850;25.948;2024-03-08T12:05:37;101693.19;;;6.67;84.85
71344;BME280;59146;43.850;25.948;2024-03-08T12:08:04;101726.78;;;7.07;83.15
71344;BME280;59146;43.850;25.948;2024-03-08T12:10:32;101713.16;;;6.99;83.17
71344;BME280;59146;43.850;25.948;2024-03-08T12:12:59;101694.06;;;6.66;84.64
71344;BME280;59146;43.850;25.948;2024-03-08T12:15:25;101712.69;;;6.83;84.38
71344;BME280;59146;43.850;25.948;2024-03-08T12:17:52;101699.25;;;6.68;84.52
71344;BME280;59146;43.850;25.948;2024-03-08T12:20:21;101709.31;;;6.80;84.13
71344;BME280;59146;43.850;25.948;2024-03-08T12:22:48;101710.94;;;6.84;83.71
71344;BME280;59146;43.850;25.948;2024-03-08T12:25:14;101716.53;;;6.69;85.44
71344;BME280;59146;43.850;25.948;2024-03-08T12:27:44;101718.94;;;6.76;85.57
71344;BME280;59146;43.850;25.948;2024-03-08T12:30:23;101702.78;;;6.65;85.56
71344;BME280;59146;43.850;25.948;2024-03-08T12:33:01;101717.34;;;6.71;86.01
71344;BME280;59146;43.850;25.948;2024-03-08T12:35:28;101644.16;;;6.23;85.52
71344;BME280;59146;43.850;25.948;2024-03-08T12:37:58;101716.63;;;6.64;85.37
71344;BME280;59146;43.850;25.948;2024-03-08T12:40:32;101704.59;;;6.62;84.39
71344;BME280;59146;43.850;25.948;2024-03-08T12:43:00;101688.63;;;6.43;85.36
71344;BME280;59146;43.850;25.948;2024-03-08T12:45:26;101714.94;;;6.63;84.46
71344;BME280;59146;43.850;25.948;2024-03-08T12:47:52;101656.66;;;6.41;83.83
71344;BME280;59146;43.850;25.948;2024-03-08T12:50:20;101689.75;;;6.67;84.29
71344;BME280;59146;43.850;25.948;2024-03-08T12:52:46;101697.38;;;6.73;84.14
71344;BME280;59146;43.850;25.948;2024-03-08T12:55:11;101694.91;;;6.68;83.61
71344;BME280;59146;43.850;25.948;2024-03-08T12:57:38;101630.69;;;6.41;83.80